Impacts TAF Board
For situational awareness. Not to be used for flight planning purposes.
IDs:

KGRK - Killeen-Ft Hood Rgnl, TX, US

Issued at 1600 UTC 20 Jun 2019
Updated at 2105 UTC 20 Jun 2019
Potential Impact None Slight Moderate High
Time<<21/10Z 21/11Z 21/12Z 21/13Z 21/14Z 21/15Z 21/16Z 21/17Z 21/18Z 21/19Z 21/20Z 21/21Z 21/22Z>>
Type PRVL PRVL PRVL PRVL PRVL PRVL PRVL PRVL PRVL PRVL PRVL PRVL
VIS >6 >6 >6 >6 >6 >6 >6 >6 >6 >6 >6 >6
CIG -- -- -- -- -- -- -- -- -- -- -- --
Cover FEW FEW FEW FEW FEW FEW FEW FEW FEW FEW FEW FEW
FltCat VFR VFR VFR VFR VFR VFR VFR VFR VFR VFR VFR VFR
WX -- -- -- -- -- -- -- -- -- -- -- --
WDir 170 170 170 170 180 180 180 180 180 180 180 180
WSpd 12 12 12 12 15 15 15 15 15 15 15 15
WGst -- -- -- -- 25 25 25 25 25 25 25 25
Raw TAF
TAF KGRK 201600Z 2016/2122 17015G25KT 9999 SCT120 QNH2970INS
  BECMG 2100/2101 17012KT 9999 FEW180 QNH2976INS
  BECMG 2114/2115 18015G25KT 9999 FEW040 QNH2975INS TX37/2021Z TN24/2111Z


METAR Board
For situational awareness. Not to be used for flight planning purposes.